createdAt,value
2023-05-25T00:00:59.902Z,4.40
2023-05-25T00:03:36.256Z,3.72
2023-05-25T00:06:05.682Z,4.38
2023-05-25T00:08:32.913Z,4.20
2023-05-25T00:11:00.270Z,4.68
2023-05-25T00:13:28.492Z,4.55
2023-05-25T00:15:56.370Z,3.80
2023-05-25T00:18:25.004Z,4.85
2023-05-25T00:20:58.552Z,5.03
2023-05-25T00:23:25.723Z,3.85
2023-05-25T00:25:52.886Z,4.07
2023-05-25T00:28:21.101Z,5.28
2023-05-25T00:30:49.358Z,4.85
2023-05-25T00:33:16.880Z,4.00
2023-05-25T00:35:45.133Z,4.15
2023-05-25T00:38:14.252Z,5.13
2023-05-25T00:40:41.678Z,5.05
2023-05-25T00:43:13.165Z,4.93
2023-05-25T00:45:41.616Z,4.90
2023-05-25T00:48:10.101Z,4.75
2023-05-25T00:50:42.390Z,5.10
2023-05-25T00:53:11.332Z,4.28
2023-05-25T00:55:46.017Z,4.60
2023-05-25T00:58:14.348Z,4.63
2023-05-25T01:00:44.324Z,4.40
2023-05-25T01:03:22.319Z,4.55
2023-05-25T01:05:53.967Z,4.55
2023-05-25T01:08:23.992Z,4.18
2023-05-25T01:10:54.047Z,4.47
2023-05-25T01:13:22.112Z,4.22
2023-05-25T01:15:51.395Z,4.95
2023-05-25T01:18:18.646Z,5.18
2023-05-25T01:21:17.986Z,3.95
2023-05-25T01:23:56.321Z,4.85
2023-05-25T01:26:29.625Z,4.03
2023-05-25T01:28:58.425Z,4.65
2023-05-25T01:31:26.224Z,5.25
2023-05-25T01:33:53.850Z,4.38
2023-05-25T01:36:21.439Z,4.43
2023-05-25T01:38:49.920Z,4.22
2023-05-25T01:41:17.170Z,5.03
2023-05-25T01:43:45.602Z,4.68
2023-05-25T01:46:20.140Z,4.70
2023-05-25T01:49:09.722Z,4.97
2023-05-25T01:51:55.381Z,4.78
2023-05-25T01:54:29.028Z,4.68
2023-05-25T01:57:01.552Z,4.32
2023-05-25T01:59:31.379Z,4.78
2023-05-25T02:02:01.143Z,4.18
2023-05-25T02:04:29.975Z,5.00
2023-05-25T02:06:57.308Z,5.55
2023-05-25T02:09:25.215Z,4.72
2023-05-25T02:11:53.346Z,5.30
2023-05-25T02:14:21.913Z,5.53
2023-05-25T02:16:49.120Z,5.90
2023-05-25T02:19:16.475Z,4.60
2023-05-25T02:21:44.637Z,5.10
2023-05-25T02:24:13.487Z,5.07
2023-05-25T02:26:41.422Z,4.65
2023-05-25T02:29:08.623Z,4.95
2023-05-25T02:31:38.307Z,4.78
2023-05-25T02:34:05.503Z,4.90
2023-05-25T02:36:35.652Z,4.38
2023-05-25T02:39:03.402Z,4.72
2023-05-25T02:41:30.817Z,5.95
2023-05-25T02:43:59.530Z,4.90
2023-05-25T02:46:26.950Z,4.85
2023-05-25T02:48:54.154Z,5.35
2023-05-25T02:51:25.212Z,5.15
2023-05-25T02:53:53.656Z,4.97
2023-05-25T02:56:23.530Z,5.05
2023-05-25T02:58:51.537Z,5.03
2023-05-25T03:01:19.346Z,5.35
2023-05-25T03:03:47.488Z,4.80
2023-05-25T03:06:15.403Z,4.75
2023-05-25T03:08:42.837Z,5.45
2023-05-25T03:11:10.342Z,4.80
2023-05-25T03:13:40.853Z,5.43
2023-05-25T03:16:09.282Z,5.03
2023-05-25T03:18:37.189Z,4.88
2023-05-25T03:21:09.030Z,5.45
2023-05-25T03:23:36.496Z,5.10
2023-05-25T03:26:03.664Z,5.32
2023-05-25T03:28:31.356Z,6.43
2023-05-25T03:30:58.493Z,5.38
2023-05-25T03:33:25.733Z,5.18
2023-05-25T03:35:53.403Z,4.65
2023-05-25T03:38:21.465Z,5.82
2023-05-25T03:40:48.959Z,4.72
2023-05-25T03:43:17.181Z,5.07
2023-05-25T03:45:46.166Z,5.93
2023-05-25T03:48:13.497Z,5.25
2023-05-25T03:50:41.216Z,6.53
2023-05-25T03:53:11.512Z,6.20
2023-05-25T03:55:39.346Z,5.40
2023-05-25T03:58:06.418Z,5.82
2023-05-25T04:00:33.724Z,5.43
2023-05-25T04:03:01.233Z,4.70
2023-05-25T04:05:29.002Z,5.75
2023-05-25T04:07:56.514Z,5.95
2023-05-25T04:10:23.712Z,5.72
2023-05-25T04:12:52.663Z,5.32
2023-05-25T04:15:22.466Z,5.90
2023-05-25T04:17:49.627Z,5.53
2023-05-25T04:20:16.911Z,5.32
2023-05-25T04:22:45.377Z,5.55
2023-05-25T04:25:13.263Z,6.18
2023-05-25T04:27:42.258Z,5.78
2023-05-25T04:30:11.165Z,7.00
2023-05-25T04:32:38.591Z,6.03
2023-05-25T04:35:05.995Z,5.28
2023-05-25T04:37:33.523Z,6.15
2023-05-25T04:40:01.743Z,6.15
2023-05-25T04:42:28.942Z,6.47
2023-05-25T04:44:56.312Z,6.43
2023-05-25T04:47:25.119Z,7.15
2023-05-25T04:49:54.340Z,5.95
2023-05-25T04:52:22.339Z,5.50
2023-05-25T04:54:49.802Z,6.53
2023-05-25T04:57:17.288Z,6.18
2023-05-25T04:59:45.560Z,6.57
2023-05-25T05:02:13.306Z,7.25
2023-05-25T05:04:41.308Z,6.53
2023-05-25T05:07:09.305Z,6.03
2023-05-25T05:09:37.208Z,6.32
2023-05-25T05:12:04.803Z,6.75
2023-05-25T05:14:32.382Z,6.43
2023-05-25T05:16:59.704Z,7.43
2023-05-25T05:19:26.997Z,7.68
2023-05-25T05:21:54.384Z,6.97
2023-05-25T05:24:22.122Z,7.70
2023-05-25T05:26:58.318Z,8.15
2023-05-25T05:29:28.256Z,8.02
2023-05-25T05:31:55.799Z,7.10
2023-05-25T05:34:23.154Z,7.13
2023-05-25T05:36:57.900Z,6.93
2023-05-25T05:39:29.102Z,7.03
2023-05-25T05:41:56.715Z,7.80
2023-05-25T05:44:27.090Z,7.90
2023-05-25T05:47:02.584Z,7.93
2023-05-25T05:49:31.312Z,9.02
2023-05-25T05:51:58.798Z,8.50
2023-05-25T05:54:28.051Z,8.65
2023-05-25T05:56:55.402Z,8.48
2023-05-25T05:59:23.009Z,8.93
2023-05-25T06:01:50.186Z,8.85
2023-05-25T06:04:19.867Z,8.43
2023-05-25T06:06:47.229Z,9.23
2023-05-25T06:09:14.409Z,8.35
2023-05-25T06:11:41.854Z,8.48
2023-05-25T06:14:09.244Z,7.72
2023-05-25T06:16:36.907Z,8.27
2023-05-25T06:19:04.715Z,7.95
2023-05-25T06:21:31.976Z,8.57
2023-05-25T06:23:59.126Z,7.50
2023-05-25T06:26:27.344Z,8.10
2023-05-25T06:28:54.528Z,7.57
2023-05-25T06:31:22.246Z,7.90
2023-05-25T06:33:49.449Z,7.05
2023-05-25T06:36:16.891Z,7.50
2023-05-25T06:38:44.505Z,7.20
2023-05-25T06:41:15.490Z,7.72
2023-05-25T06:43:42.769Z,7.80
2023-05-25T06:46:10.586Z,6.80
2023-05-25T06:48:39.218Z,7.18
2023-05-25T06:51:06.446Z,6.88
2023-05-25T06:53:33.638Z,7.03
2023-05-25T06:56:01.052Z,6.63
2023-05-25T06:58:28.838Z,6.28
2023-05-25T07:00:56.383Z,6.93
2023-05-25T07:03:23.609Z,5.78
2023-05-25T07:05:51.396Z,6.28
2023-05-25T07:08:18.790Z,6.03
2023-05-25T07:10:46.604Z,5.72
2023-05-25T07:13:15.560Z,6.18
2023-05-25T07:15:43.562Z,6.15
2023-05-25T07:18:12.926Z,6.13
2023-05-25T07:20:42.314Z,4.97
2023-05-25T07:23:12.989Z,5.50
2023-05-25T07:25:41.492Z,5.90
2023-05-25T07:28:11.951Z,6.05
2023-05-25T07:30:40.871Z,6.10
2023-05-25T07:33:08.649Z,5.30
2023-05-25T07:35:36.319Z,6.72
2023-05-25T07:38:07.296Z,7.05
2023-05-25T07:40:34.431Z,6.93
2023-05-25T07:43:02.051Z,6.65
2023-05-25T07:45:29.437Z,7.05
2023-05-25T07:47:56.869Z,6.05
2023-05-25T07:50:24.208Z,6.63
2023-05-25T07:52:51.385Z,7.55
2023-05-25T07:55:20.411Z,5.93
2023-05-25T07:57:47.540Z,6.03
2023-05-25T08:00:15.605Z,6.25
2023-05-25T08:02:42.955Z,6.45
2023-05-25T08:05:10.570Z,6.57
2023-05-25T08:07:40.086Z,5.85
2023-05-25T08:10:09.734Z,5.75
2023-05-25T08:12:48.042Z,6.18
2023-05-25T08:15:17.215Z,5.57
2023-05-25T08:17:44.930Z,5.10
2023-05-25T08:20:12.959Z,6.10
2023-05-25T08:22:40.730Z,5.03
2023-05-25T08:25:09.780Z,4.65
2023-05-25T08:27:39.664Z,4.60
2023-05-25T08:30:07.644Z,5.10
2023-05-25T08:32:34.958Z,3.88
2023-05-25T08:35:04.709Z,4.40
2023-05-25T08:37:32.362Z,4.72
2023-05-25T08:40:02.252Z,4.53
2023-05-25T08:42:29.875Z,4.32
2023-05-25T08:44:57.360Z,4.47
2023-05-25T08:47:28.100Z,4.22
2023-05-25T08:49:56.379Z,3.38
2023-05-25T08:52:29.023Z,4.55
2023-05-25T08:55:01.875Z,3.88
2023-05-25T08:57:37.301Z,4.17
2023-05-25T09:00:12.092Z,3.90
2023-05-25T09:02:51.481Z,3.97
2023-05-25T09:05:19.670Z,3.63
2023-05-25T09:07:48.108Z,3.97
2023-05-25T09:10:18.919Z,4.32
2023-05-25T09:12:46.809Z,3.20
2023-05-25T09:15:14.387Z,2.97
2023-05-25T09:17:41.805Z,2.85
2023-05-25T09:20:13.976Z,3.35
2023-05-25T09:22:42.253Z,3.78
2023-05-25T09:25:11.578Z,2.33
2023-05-25T09:27:39.324Z,3.20
2023-05-25T09:30:07.633Z,2.92
2023-05-25T09:32:36.222Z,2.63
2023-05-25T09:35:14.791Z,2.60
2023-05-25T09:37:43.549Z,2.53
2023-05-25T09:40:11.754Z,2.53
2023-05-25T09:42:39.138Z,2.40
2023-05-25T09:45:07.550Z,3.60
2023-05-25T09:47:37.679Z,2.90
2023-05-25T09:50:05.809Z,2.70
2023-05-25T09:52:33.202Z,2.65
2023-05-25T09:55:02.388Z,3.22
2023-05-25T09:57:30.212Z,2.88
2023-05-25T09:59:57.456Z,2.05
2023-05-25T10:02:24.929Z,2.80
2023-05-25T10:04:55.035Z,2.38
2023-05-25T10:07:22.869Z,3.15
2023-05-25T10:09:53.592Z,2.70
2023-05-25T10:12:24.257Z,3.83
2023-05-25T10:14:52.076Z,2.30
2023-05-25T10:17:23.549Z,2.80
2023-05-25T10:19:57.631Z,2.35
2023-05-25T10:22:40.754Z,2.53
2023-05-25T10:25:21.133Z,2.77
2023-05-25T10:28:12.678Z,3.00
2023-05-25T10:30:41.420Z,3.08
2023-05-25T10:33:10.942Z,2.45
2023-05-25T10:35:56.130Z,2.70
2023-05-25T10:38:29.060Z,1.95
2023-05-25T10:40:56.345Z,2.80
2023-05-25T10:43:24.592Z,1.90
2023-05-25T10:45:52.449Z,2.13
2023-05-25T10:48:21.935Z,3.85
2023-05-25T10:50:52.729Z,2.42
2023-05-25T10:53:23.830Z,2.42
2023-05-25T10:55:53.876Z,2.20
2023-05-25T10:58:23.461Z,2.78
2023-05-25T11:01:07.479Z,2.80
2023-05-25T11:03:53.334Z,2.58
2023-05-25T11:06:22.768Z,2.22
2023-05-25T11:08:55.943Z,2.88
2023-05-25T11:11:43.366Z,2.95
2023-05-25T11:14:44.504Z,2.85
2023-05-25T11:17:22.383Z,2.47
2023-05-25T11:19:54.951Z,3.72
2023-05-25T11:22:33.616Z,3.20
2023-05-25T11:25:02.838Z,3.88
2023-05-25T11:27:31.888Z,8.35
2023-05-25T11:30:00.778Z,2.97
2023-05-25T11:32:28.559Z,3.22
2023-05-25T11:34:58.108Z,2.50
2023-05-25T11:37:31.606Z,2.83
2023-05-25T11:39:59.094Z,2.55
2023-05-25T11:42:26.400Z,3.15
2023-05-25T11:44:53.722Z,2.78
2023-05-25T11:47:25.217Z,2.75
2023-05-25T11:49:55.960Z,3.10
2023-05-25T11:52:23.350Z,2.85
2023-05-25T11:54:51.069Z,3.17
2023-05-25T11:57:24.690Z,2.53
2023-05-25T11:59:57.725Z,2.45
2023-05-25T12:02:25.237Z,2.80
2023-05-25T12:04:56.332Z,2.42
2023-05-25T12:07:24.462Z,2.90
2023-05-25T12:10:12.198Z,2.85
2023-05-25T12:12:49.477Z,3.10
2023-05-25T12:15:27.743Z,2.63
2023-05-25T12:17:55.050Z,2.85
2023-05-25T12:20:22.674Z,2.97
2023-05-25T12:22:50.111Z,2.55
2023-05-25T12:25:22.143Z,2.50
2023-05-25T12:27:49.711Z,3.03
2023-05-25T12:30:17.433Z,2.58
2023-05-25T12:33:04.262Z,3.35
2023-05-25T12:35:50.029Z,2.92
2023-05-25T12:38:19.862Z,2.95
2023-05-25T12:40:47.886Z,2.45
2023-05-25T12:43:17.454Z,2.55
2023-05-25T12:45:47.843Z,2.83
2023-05-25T12:48:15.916Z,2.85
2023-05-25T12:50:58.706Z,2.78
2023-05-25T12:53:27.317Z,3.13
2023-05-25T12:56:02.803Z,2.75
2023-05-25T12:58:30.244Z,3.25
2023-05-25T13:00:57.430Z,3.75
2023-05-25T13:03:25.024Z,3.35
2023-05-25T13:06:00.635Z,3.53
2023-05-25T13:08:28.849Z,3.55
2023-05-25T13:10:56.439Z,4.38
2023-05-25T13:13:23.628Z,3.28
2023-05-25T13:15:51.254Z,3.20
2023-05-25T13:18:18.514Z,3.08
2023-05-25T13:20:49.527Z,3.53
2023-05-25T13:23:18.599Z,3.03
2023-05-25T13:25:47.020Z,3.10
2023-05-25T13:28:14.314Z,3.13
2023-05-25T13:30:42.830Z,3.33
2023-05-25T13:33:11.054Z,3.22
2023-05-25T13:35:45.886Z,3.08
2023-05-25T13:38:17.273Z,2.75
2023-05-25T13:40:48.113Z,3.22
2023-05-25T13:43:15.857Z,3.70
2023-05-25T13:45:43.384Z,3.22
2023-05-25T13:48:10.701Z,3.05
2023-05-25T13:50:38.402Z,4.07
2023-05-25T13:53:05.499Z,4.20
2023-05-25T13:55:32.825Z,3.40
2023-05-25T13:58:00.047Z,3.15
2023-05-25T14:00:27.857Z,3.13
2023-05-25T14:02:55.171Z,3.92
2023-05-25T14:05:22.870Z,4.18
2023-05-25T14:07:50.325Z,3.53
2023-05-25T14:10:18.411Z,3.60
2023-05-25T14:12:46.417Z,3.78
2023-05-25T14:15:13.607Z,3.70
2023-05-25T14:17:40.862Z,4.25
2023-05-25T14:20:09.625Z,3.30
2023-05-25T14:22:39.059Z,3.70
2023-05-25T14:25:06.777Z,2.70
2023-05-25T14:27:33.937Z,4.07
2023-05-25T14:30:01.047Z,3.55
2023-05-25T14:32:28.367Z,4.22
2023-05-25T14:34:55.642Z,3.90
2023-05-25T14:37:22.776Z,3.50
2023-05-25T14:39:50.150Z,3.95
2023-05-25T14:42:17.586Z,3.63
2023-05-25T14:44:45.645Z,3.50
2023-05-25T14:47:13.103Z,4.07
2023-05-25T14:49:40.733Z,3.05
2023-05-25T14:52:08.888Z,4.05
2023-05-25T14:54:36.225Z,4.22
2023-05-25T14:57:04.236Z,3.65
2023-05-25T14:59:32.931Z,3.10
2023-05-25T15:02:00.405Z,3.45
2023-05-25T15:04:30.098Z,3.58
2023-05-25T15:06:58.198Z,3.17
2023-05-25T15:09:25.523Z,4.05
2023-05-25T15:11:52.922Z,2.90
2023-05-25T15:14:20.413Z,3.13
2023-05-25T15:16:47.671Z,2.95
2023-05-25T15:19:18.472Z,3.20
2023-05-25T15:21:45.788Z,3.45
2023-05-25T15:24:16.735Z,3.65
2023-05-25T15:26:44.700Z,3.63
2023-05-25T15:29:12.032Z,4.00
2023-05-25T15:31:39.566Z,4.30
2023-05-25T15:34:06.864Z,3.88
2023-05-25T15:36:33.991Z,4.10
2023-05-25T15:39:01.463Z,3.95
2023-05-25T15:41:29.040Z,4.65
2023-05-25T15:44:01.939Z,4.55
2023-05-25T15:46:29.232Z,3.85
2023-05-25T15:48:56.621Z,3.80
2023-05-25T15:51:24.033Z,4.43
2023-05-25T15:53:51.420Z,4.22
2023-05-25T15:56:18.638Z,4.15
2023-05-25T15:58:49.018Z,4.10
2023-05-25T16:01:16.849Z,3.55
2023-05-25T16:03:45.289Z,3.33
2023-05-25T16:06:12.902Z,4.13
2023-05-25T16:08:40.076Z,4.18
2023-05-25T16:11:07.614Z,4.75
2023-05-25T16:13:34.911Z,4.05
2023-05-25T16:16:02.255Z,5.10
2023-05-25T16:18:29.446Z,4.35
2023-05-25T16:20:57.770Z,3.63
2023-05-25T16:23:25.604Z,4.22
2023-05-25T16:25:53.837Z,4.25
2023-05-25T16:28:21.384Z,4.07
2023-05-25T16:30:48.588Z,4.00
2023-05-25T16:33:16.074Z,4.38
2023-05-25T16:35:45.699Z,4.10
2023-05-25T16:38:13.112Z,4.03
2023-05-25T16:40:41.012Z,3.58
2023-05-25T16:43:09.158Z,4.30
2023-05-25T16:45:36.582Z,3.88
2023-05-25T16:48:04.422Z,5.20
2023-05-25T16:50:31.962Z,4.13
2023-05-25T16:52:59.240Z,4.93
2023-05-25T16:55:26.473Z,4.18
2023-05-25T16:57:53.684Z,4.82
2023-05-25T17:00:21.770Z,4.05
2023-05-25T17:02:49.328Z,4.75
2023-05-25T17:05:16.592Z,4.07
2023-05-25T17:07:46.227Z,4.57
2023-05-25T17:10:15.595Z,4.93
2023-05-25T17:12:42.946Z,4.57
2023-05-25T17:15:11.418Z,4.55
2023-05-25T17:17:38.699Z,4.97
2023-05-25T17:20:07.032Z,4.32
2023-05-25T17:22:34.299Z,6.07
2023-05-25T17:25:01.609Z,5.15
2023-05-25T17:27:29.010Z,4.63
2023-05-25T17:29:56.376Z,4.70
2023-05-25T17:32:23.552Z,4.60
2023-05-25T17:34:50.923Z,5.18
2023-05-25T17:37:19.056Z,4.47
2023-05-25T17:39:46.976Z,4.80
2023-05-25T17:42:14.405Z,4.50
2023-05-25T17:44:42.600Z,4.75
2023-05-25T17:47:11.221Z,4.82
2023-05-25T17:49:41.954Z,4.85
2023-05-25T17:52:09.269Z,4.55
2023-05-25T17:54:36.683Z,4.50
2023-05-25T17:57:04.593Z,5.25
2023-05-25T17:59:31.839Z,5.00
2023-05-25T18:01:59.277Z,4.57
2023-05-25T18:04:26.685Z,5.53
2023-05-25T18:06:54.125Z,6.22
2023-05-25T18:09:22.164Z,5.15
2023-05-25T18:11:49.391Z,5.10
2023-05-25T18:14:16.642Z,5.85
2023-05-25T18:16:45.221Z,5.20
2023-05-25T18:19:15.688Z,4.78
2023-05-25T18:21:42.830Z,4.68
2023-05-25T18:24:10.564Z,5.10
2023-05-25T18:26:38.366Z,4.07
2023-05-25T18:29:05.764Z,4.50
2023-05-25T18:31:33.401Z,4.60
2023-05-25T18:34:00.979Z,5.03
2023-05-25T18:36:28.312Z,4.47
2023-05-25T18:38:55.646Z,4.65
2023-05-25T18:41:24.482Z,4.43
2023-05-25T18:43:52.309Z,4.95
2023-05-25T18:46:19.952Z,4.50
2023-05-25T18:48:47.129Z,4.43
2023-05-25T18:51:15.820Z,4.93
2023-05-25T18:53:47.751Z,4.75
2023-05-25T18:56:15.426Z,4.38
2023-05-25T18:58:42.693Z,4.90
2023-05-25T19:01:09.787Z,4.80
2023-05-25T19:03:37.541Z,4.75
2023-05-25T19:06:05.180Z,5.47
2023-05-25T19:08:32.512Z,4.47
2023-05-25T19:10:59.774Z,5.07
2023-05-25T19:13:26.982Z,4.65
2023-05-25T19:15:54.176Z,4.05
2023-05-25T19:18:22.302Z,4.43
2023-05-25T19:20:49.895Z,5.25
2023-05-25T19:23:19.585Z,4.63
2023-05-25T19:25:47.306Z,4.80
2023-05-25T19:28:15.479Z,5.70
2023-05-25T19:30:42.704Z,4.88
2023-05-25T19:33:10.081Z,4.72
2023-05-25T19:35:38.057Z,5.10
2023-05-25T19:38:05.532Z,4.43
2023-05-25T19:40:33.358Z,3.45
2023-05-25T19:43:00.843Z,5.13
2023-05-25T19:45:28.463Z,5.30
2023-05-25T19:47:57.058Z,4.80
2023-05-25T19:50:28.083Z,4.45
2023-05-25T19:52:55.241Z,4.82
2023-05-25T19:55:22.885Z,4.78
2023-05-25T19:57:50.224Z,4.70
2023-05-25T20:00:25.915Z,4.47
2023-05-25T20:02:54.358Z,4.55
2023-05-25T20:05:22.277Z,3.92
2023-05-25T20:07:52.246Z,5.32
2023-05-25T20:10:22.342Z,4.32
2023-05-25T20:12:49.954Z,4.40
2023-05-25T20:15:17.657Z,3.67
2023-05-25T20:17:46.090Z,4.85
2023-05-25T20:20:14.101Z,4.13
2023-05-25T20:22:41.503Z,4.57
2023-05-25T20:25:11.424Z,4.28
2023-05-25T20:27:38.976Z,4.35
2023-05-25T20:30:07.079Z,4.28
2023-05-25T20:32:34.523Z,5.03
2023-05-25T20:35:02.008Z,4.25
2023-05-25T20:37:29.483Z,4.45
2023-05-25T20:39:57.159Z,4.38
2023-05-25T20:42:24.863Z,4.65
2023-05-25T20:44:52.979Z,4.38
2023-05-25T20:47:21.093Z,4.97
2023-05-25T20:49:48.433Z,5.07
2023-05-25T20:52:16.172Z,4.10
2023-05-25T20:54:45.320Z,4.75
2023-05-25T20:57:13.219Z,4.18
2023-05-25T20:59:40.692Z,4.10
2023-05-25T21:02:08.380Z,4.57
2023-05-25T21:04:35.791Z,4.72
2023-05-25T21:07:02.953Z,3.95
2023-05-25T21:09:30.163Z,4.45
2023-05-25T21:11:57.625Z,4.70
2023-05-25T21:14:25.301Z,4.63
2023-05-25T21:16:52.509Z,4.00
2023-05-25T21:19:20.973Z,4.63
2023-05-25T21:21:48.283Z,4.45
2023-05-25T21:24:15.722Z,5.10
2023-05-25T21:26:43.074Z,4.68
2023-05-25T21:29:10.402Z,4.78
2023-05-25T21:31:38.410Z,4.00
2023-05-25T21:34:05.739Z,4.15
2023-05-25T21:36:33.065Z,4.07
2023-05-25T21:39:00.414Z,4.80
2023-05-25T21:41:28.195Z,4.15
2023-05-25T21:43:55.695Z,4.05
2023-05-25T21:46:22.885Z,5.13
2023-05-25T21:48:50.055Z,4.88
2023-05-25T21:51:17.398Z,4.72
2023-05-25T21:53:47.319Z,3.75
2023-05-25T21:56:15.595Z,4.38
2023-05-25T21:58:42.854Z,4.82
2023-05-25T22:01:10.086Z,4.43
2023-05-25T22:03:37.351Z,4.80
2023-05-25T22:06:04.690Z,4.90
2023-05-25T22:08:31.840Z,4.60
2023-05-25T22:10:59.001Z,4.63
2023-05-25T22:13:26.150Z,5.07
2023-05-25T22:15:53.279Z,5.75
2023-05-25T22:18:21.236Z,4.10
2023-05-25T22:20:48.361Z,4.03
2023-05-25T22:23:15.709Z,5.03
2023-05-25T22:25:43.052Z,5.90
2023-05-25T22:28:11.428Z,4.28
2023-05-25T22:30:38.701Z,4.97
2023-05-25T22:33:06.142Z,5.35
2023-05-25T22:35:33.476Z,4.88
2023-05-25T22:38:00.707Z,4.28
2023-05-25T22:40:28.039Z,4.60
2023-05-25T22:42:55.412Z,5.20
2023-05-25T22:45:22.912Z,4.63
2023-05-25T22:47:50.119Z,4.63
2023-05-25T22:50:17.594Z,4.97
2023-05-25T22:52:45.471Z,4.75
2023-05-25T22:55:12.766Z,4.15
2023-05-25T22:57:40.196Z,4.55
2023-05-25T23:00:08.680Z,4.40
2023-05-25T23:02:36.351Z,4.43
2023-05-25T23:05:05.649Z,5.22
2023-05-25T23:07:33.222Z,4.82
2023-05-25T23:10:00.530Z,4.95
2023-05-25T23:12:28.366Z,4.32
2023-05-25T23:14:59.440Z,4.55
2023-05-25T23:17:26.888Z,3.97
2023-05-25T23:19:55.023Z,4.45
2023-05-25T23:22:22.422Z,4.20
2023-05-25T23:24:49.576Z,5.00
2023-05-25T23:27:16.887Z,3.95
2023-05-25T23:29:44.233Z,4.75
2023-05-25T23:32:11.571Z,6.07
2023-05-25T23:34:38.896Z,4.38
2023-05-25T23:37:06.725Z,5.28
2023-05-25T23:39:34.108Z,4.70
2023-05-25T23:42:02.428Z,4.72
2023-05-25T23:44:29.580Z,4.63
2023-05-25T23:46:56.747Z,5.00
2023-05-25T23:49:24.081Z,4.57
2023-05-25T23:51:51.936Z,4.70
2023-05-25T23:54:19.553Z,5.03
2023-05-25T23:56:46.859Z,4.32
2023-05-25T23:59:15.322Z,4.72
